sensor_id;sensor_type;location;lat;lon;timestamp;pressure;altitude;pressure_sealevel;temperature
43292;BMP280;28754;47.700;7.924;2023-04-10T00:01:34;91734.78;;;7.23
43292;BMP280;28754;47.700;7.924;2023-04-10T00:04:21;91730.47;;;7.23
43292;BMP280;28754;47.700;7.924;2023-04-10T00:07:08;91732.78;;;7.25
43292;BMP280;28754;47.700;7.924;2023-04-10T00:09:55;91731.22;;;7.24
43292;BMP280;28754;47.700;7.924;2023-04-10T00:12:42;91719.03;;;7.26
43292;BMP280;28754;47.700;7.924;2023-04-10T00:15:29;91723.13;;;7.27
43292;BMP280;28754;47.700;7.924;2023-04-10T00:18:16;91725.22;;;7.30
43292;BMP280;28754;47.700;7.924;2023-04-10T00:21:03;91729.28;;;7.31
43292;BMP280;28754;47.700;7.924;2023-04-10T00:23:49;91720.81;;;7.25
43292;BMP280;28754;47.700;7.924;2023-04-10T00:26:36;91724.59;;;7.23
43292;BMP280;28754;47.700;7.924;2023-04-10T00:29:24;91733.91;;;7.18
43292;BMP280;28754;47.700;7.924;2023-04-10T00:32:10;91726.41;;;7.11
43292;BMP280;28754;47.700;7.924;2023-04-10T00:34:57;91731.41;;;7.06
43292;BMP280;28754;47.700;7.924;2023-04-10T00:37:44;91727.22;;;7.00
43292;BMP280;28754;47.700;7.924;2023-04-10T00:40:30;91721.91;;;7.02
43292;BMP280;28754;47.700;7.924;2023-04-10T00:43:17;91719.25;;;6.97
43292;BMP280;28754;47.700;7.924;2023-04-10T00:46:05;91718.84;;;6.88
43292;BMP280;28754;47.700;7.924;2023-04-10T00:48:55;91717.66;;;6.80
43292;BMP280;28754;47.700;7.924;2023-04-10T00:51:41;91714.72;;;6.71
43292;BMP280;28754;47.700;7.924;2023-04-10T00:54:30;91717.06;;;6.61
43292;BMP280;28754;47.700;7.924;2023-04-10T00:57:17;91712.00;;;6.50
43292;BMP280;28754;47.700;7.924;2023-04-10T01:00:04;91716.22;;;6.45
43292;BMP280;28754;47.700;7.924;2023-04-10T01:02:53;91714.16;;;6.42
43292;BMP280;28754;47.700;7.924;2023-04-10T01:09:16;91711.34;;;6.43
43292;BMP280;28754;47.700;7.924;2023-04-10T01:15:26;91718.78;;;6.45
43292;BMP280;28754;47.700;7.924;2023-04-10T01:18:24;91713.34;;;6.41
43292;BMP280;28754;47.700;7.924;2023-04-10T01:21:14;91708.25;;;6.41
43292;BMP280;28754;47.700;7.924;2023-04-10T01:25:13;91709.38;;;6.45
43292;BMP280;28754;47.700;7.924;2023-04-10T01:31:10;91707.16;;;6.49
43292;BMP280;28754;47.700;7.924;2023-04-10T01:34:06;91706.13;;;6.49
43292;BMP280;28754;47.700;7.924;2023-04-10T01:37:00;91708.81;;;6.54
43292;BMP280;28754;47.700;7.924;2023-04-10T01:39:59;91705.59;;;6.59
43292;BMP280;28754;47.700;7.924;2023-04-10T01:42:54;91707.88;;;6.60
43292;BMP280;28754;47.700;7.924;2023-04-10T01:45:50;91709.09;;;6.58
43292;BMP280;28754;47.700;7.924;2023-04-10T01:48:38;91700.94;;;6.56
43292;BMP280;28754;47.700;7.924;2023-04-10T01:51:26;91707.56;;;6.57
43292;BMP280;28754;47.700;7.924;2023-04-10T01:54:15;91694.31;;;6.55
43292;BMP280;28754;47.700;7.924;2023-04-10T01:57:04;91692.31;;;6.57
43292;BMP280;28754;47.700;7.924;2023-04-10T01:59:57;91700.78;;;6.62
43292;BMP280;28754;47.700;7.924;2023-04-10T02:02:47;91705.75;;;6.69
43292;BMP280;28754;47.700;7.924;2023-04-10T02:06:17;91711.19;;;6.72
43292;BMP280;28754;47.700;7.924;2023-04-10T02:09:24;91702.09;;;6.76
43292;BMP280;28754;47.700;7.924;2023-04-10T02:12:31;91697.97;;;6.86
43292;BMP280;28754;47.700;7.924;2023-04-10T02:15:25;91711.41;;;6.98
43292;BMP280;28754;47.700;7.924;2023-04-10T02:18:16;91704.41;;;7.05
43292;BMP280;28754;47.700;7.924;2023-04-10T02:21:05;91704.38;;;7.17
43292;BMP280;28754;47.700;7.924;2023-04-10T02:23:55;91710.63;;;7.25
43292;BMP280;28754;47.700;7.924;2023-04-10T02:26:48;91704.63;;;7.31
43292;BMP280;28754;47.700;7.924;2023-04-10T02:29:36;91703.94;;;7.36
43292;BMP280;28754;47.700;7.924;2023-04-10T02:32:23;91706.56;;;7.41
43292;BMP280;28754;47.700;7.924;2023-04-10T02:35:10;91703.00;;;7.42
43292;BMP280;28754;47.700;7.924;2023-04-10T02:37:57;91697.91;;;7.42
43292;BMP280;28754;47.700;7.924;2023-04-10T02:40:44;91687.31;;;7.33
43292;BMP280;28754;47.700;7.924;2023-04-10T02:43:33;91689.56;;;7.30
43292;BMP280;28754;47.700;7.924;2023-04-10T02:46:20;91693.88;;;7.29
43292;BMP280;28754;47.700;7.924;2023-04-10T02:49:07;91700.97;;;7.27
43292;BMP280;28754;47.700;7.924;2023-04-10T02:51:53;91703.81;;;7.31
43292;BMP280;28754;47.700;7.924;2023-04-10T02:54:40;91696.09;;;7.26
43292;BMP280;28754;47.700;7.924;2023-04-10T02:57:27;91701.91;;;7.21
43292;BMP280;28754;47.700;7.924;2023-04-10T03:00:14;91701.13;;;7.21
43292;BMP280;28754;47.700;7.924;2023-04-10T03:03:20;91707.22;;;7.20
43292;BMP280;28754;47.700;7.924;2023-04-10T03:06:11;91691.09;;;7.15
43292;BMP280;28754;47.700;7.924;2023-04-10T03:09:00;91688.00;;;7.13
43292;BMP280;28754;47.700;7.924;2023-04-10T03:11:47;91687.88;;;7.08
43292;BMP280;28754;47.700;7.924;2023-04-10T03:14:34;91687.50;;;6.99
43292;BMP280;28754;47.700;7.924;2023-04-10T03:17:21;91681.00;;;6.92
43292;BMP280;28754;47.700;7.924;2023-04-10T03:20:08;91681.34;;;6.84
43292;BMP280;28754;47.700;7.924;2023-04-10T03:22:55;91674.88;;;6.77
43292;BMP280;28754;47.700;7.924;2023-04-10T03:25:49;91669.38;;;6.68
43292;BMP280;28754;47.700;7.924;2023-04-10T03:28:39;91669.28;;;6.63
43292;BMP280;28754;47.700;7.924;2023-04-10T03:31:29;91661.31;;;6.60
43292;BMP280;28754;47.700;7.924;2023-04-10T03:34:18;91655.69;;;6.58
43292;BMP280;28754;47.700;7.924;2023-04-10T03:37:05;91646.94;;;6.54
43292;BMP280;28754;47.700;7.924;2023-04-10T03:39:52;91646.19;;;6.53
43292;BMP280;28754;47.700;7.924;2023-04-10T03:42:39;91647.75;;;6.54
43292;BMP280;28754;47.700;7.924;2023-04-10T03:45:25;91642.66;;;6.54
43292;BMP280;28754;47.700;7.924;2023-04-10T03:48:13;91641.88;;;6.54
43292;BMP280;28754;47.700;7.924;2023-04-10T03:51:04;91644.97;;;6.56
43292;BMP280;28754;47.700;7.924;2023-04-10T03:53:51;91645.28;;;6.59
43292;BMP280;28754;47.700;7.924;2023-04-10T03:56:38;91655.25;;;6.61
43292;BMP280;28754;47.700;7.924;2023-04-10T03:59:25;91649.16;;;6.62
43292;BMP280;28754;47.700;7.924;2023-04-10T04:02:12;91657.78;;;6.61
43292;BMP280;28754;47.700;7.924;2023-04-10T04:05:01;91657.78;;;6.61
43292;BMP280;28754;47.700;7.924;2023-04-10T04:08:08;91652.69;;;6.61
43292;BMP280;28754;47.700;7.924;2023-04-10T04:11:17;91661.88;;;6.62
43292;BMP280;28754;47.700;7.924;2023-04-10T04:14:13;91655.75;;;6.63
43292;BMP280;28754;47.700;7.924;2023-04-10T04:17:19;91658.31;;;6.63
43292;BMP280;28754;47.700;7.924;2023-04-10T04:20:26;91654.44;;;6.60
43292;BMP280;28754;47.700;7.924;2023-04-10T04:23:36;91664.41;;;6.62
43292;BMP280;28754;47.700;7.924;2023-04-10T04:26:31;91676.66;;;6.65
43292;BMP280;28754;47.700;7.924;2023-04-10T04:29:31;91674.59;;;6.62
43292;BMP280;28754;47.700;7.924;2023-04-10T04:32:43;91675.59;;;6.61
43292;BMP280;28754;47.700;7.924;2023-04-10T04:35:42;91670.41;;;6.56
43292;BMP280;28754;47.700;7.924;2023-04-10T04:38:39;91672.09;;;6.50
43292;BMP280;28754;47.700;7.924;2023-04-10T04:41:32;91674.84;;;6.49
43292;BMP280;28754;47.700;7.924;2023-04-10T04:44:37;91667.91;;;6.45
43292;BMP280;28754;47.700;7.924;2023-04-10T04:47:47;91673.19;;;6.43
43292;BMP280;28754;47.700;7.924;2023-04-10T04:50:57;91667.56;;;6.41
43292;BMP280;28754;47.700;7.924;2023-04-10T04:54:03;91672.09;;;6.39
43292;BMP280;28754;47.700;7.924;2023-04-10T04:57:18;91685.28;;;6.36
43292;BMP280;28754;47.700;7.924;2023-04-10T05:00:23;91669.47;;;6.34
43292;BMP280;28754;47.700;7.924;2023-04-10T05:03:29;91672.56;;;6.36
43292;BMP280;28754;47.700;7.924;2023-04-10T05:06:23;91677.88;;;6.35
43292;BMP280;28754;47.700;7.924;2023-04-10T05:09:34;91675.09;;;6.36
43292;BMP280;28754;47.700;7.924;2023-04-10T05:12:30;91686.16;;;6.42
43292;BMP280;28754;47.700;7.924;2023-04-10T05:15:22;91688.03;;;6.46
43292;BMP280;28754;47.700;7.924;2023-04-10T05:18:29;91681.47;;;6.50
43292;BMP280;28754;47.700;7.924;2023-04-10T05:21:38;91682.81;;;6.52
43292;BMP280;28754;47.700;7.924;2023-04-10T05:24:45;91685.34;;;6.52
43292;BMP280;28754;47.700;7.924;2023-04-10T05:27:41;91688.44;;;6.54
43292;BMP280;28754;47.700;7.924;2023-04-10T05:30:45;91686.66;;;6.55
43292;BMP280;28754;47.700;7.924;2023-04-10T05:34:07;91687.66;;;6.54
43292;BMP280;28754;47.700;7.924;2023-04-10T05:37:09;91690.53;;;6.57
43292;BMP280;28754;47.700;7.924;2023-04-10T05:40:27;91687.78;;;6.59
43292;BMP280;28754;47.700;7.924;2023-04-10T05:43:50;91675.59;;;6.61
43292;BMP280;28754;47.700;7.924;2023-04-10T05:47:02;91671.81;;;6.63
43292;BMP280;28754;47.700;7.924;2023-04-10T05:50:08;91684.16;;;6.71
43292;BMP280;28754;47.700;7.924;2023-04-10T05:53:13;91679.09;;;6.71
43292;BMP280;28754;47.700;7.924;2023-04-10T05:56:32;91687.59;;;6.77
43292;BMP280;28754;47.700;7.924;2023-04-10T05:59:44;91677.75;;;6.80
43292;BMP280;28754;47.700;7.924;2023-04-10T06:02:44;91680.59;;;6.83
43292;BMP280;28754;47.700;7.924;2023-04-10T06:05:40;91681.22;;;6.90
43292;BMP280;28754;47.700;7.924;2023-04-10T06:08:30;91681.88;;;6.97
43292;BMP280;28754;47.700;7.924;2023-04-10T06:11:17;91683.47;;;7.03
43292;BMP280;28754;47.700;7.924;2023-04-10T06:14:09;91691.16;;;7.19
43292;BMP280;28754;47.700;7.924;2023-04-10T06:17:01;91691.41;;;7.34
43292;BMP280;28754;47.700;7.924;2023-04-10T06:19:48;91690.97;;;7.53
43292;BMP280;28754;47.700;7.924;2023-04-10T06:22:34;91688.66;;;7.68
43292;BMP280;28754;47.700;7.924;2023-04-10T06:25:21;91694.75;;;7.84
43292;BMP280;28754;47.700;7.924;2023-04-10T06:28:08;91691.81;;;7.91
43292;BMP280;28754;47.700;7.924;2023-04-10T06:30:55;91698.88;;;8.06
43292;BMP280;28754;47.700;7.924;2023-04-10T06:33:50;91694.44;;;8.13
43292;BMP280;28754;47.700;7.924;2023-04-10T06:36:37;91697.03;;;8.18
43292;BMP280;28754;47.700;7.924;2023-04-10T06:39:26;91693.47;;;8.19
43292;BMP280;28754;47.700;7.924;2023-04-10T06:42:13;91698.66;;;8.23
43292;BMP280;28754;47.700;7.924;2023-04-10T06:45:16;91686.44;;;8.25
43292;BMP280;28754;47.700;7.924;2023-04-10T06:48:03;91688.03;;;8.31
43292;BMP280;28754;47.700;7.924;2023-04-10T06:50:50;91689.69;;;8.42
43292;BMP280;28754;47.700;7.924;2023-04-10T06:53:37;91689.84;;;8.52
43292;BMP280;28754;47.700;7.924;2023-04-10T06:56:24;91696.06;;;8.61
43292;BMP280;28754;47.700;7.924;2023-04-10T06:59:10;91696.97;;;8.71
43292;BMP280;28754;47.700;7.924;2023-04-10T07:01:57;91697.09;;;8.81
43292;BMP280;28754;47.700;7.924;2023-04-10T07:04:44;91693.63;;;8.92
43292;BMP280;28754;47.700;7.924;2023-04-10T07:07:31;91683.50;;;9.02
43292;BMP280;28754;47.700;7.924;2023-04-10T07:10:18;91685.63;;;9.10
43292;BMP280;28754;47.700;7.924;2023-04-10T07:13:05;91692.09;;;9.17
43292;BMP280;28754;47.700;7.924;2023-04-10T07:15:51;91691.69;;;9.30
43292;BMP280;28754;47.700;7.924;2023-04-10T07:18:38;91693.59;;;9.39
43292;BMP280;28754;47.700;7.924;2023-04-10T07:21:26;91699.81;;;9.48
43292;BMP280;28754;47.700;7.924;2023-04-10T07:24:13;91686.06;;;9.54
43292;BMP280;28754;47.700;7.924;2023-04-10T07:26:59;91687.63;;;9.60
43292;BMP280;28754;47.700;7.924;2023-04-10T07:29:47;91696.13;;;9.65
43292;BMP280;28754;47.700;7.924;2023-04-10T07:32:33;91694.63;;;9.69
43292;BMP280;28754;47.700;7.924;2023-04-10T07:35:20;91699.56;;;9.81
43292;BMP280;28754;47.700;7.924;2023-04-10T07:38:07;91694.56;;;9.91
43292;BMP280;28754;47.700;7.924;2023-04-10T07:40:57;91693.84;;;10.00
43292;BMP280;28754;47.700;7.924;2023-04-10T07:43:44;91697.47;;;10.09
43292;BMP280;28754;47.700;7.924;2023-04-10T07:46:31;91686.28;;;10.15
43292;BMP280;28754;47.700;7.924;2023-04-10T07:49:18;91686.81;;;10.22
43292;BMP280;28754;47.700;7.924;2023-04-10T07:52:05;91683.81;;;10.29
43292;BMP280;28754;47.700;7.924;2023-04-10T07:54:52;91697.69;;;10.38
43292;BMP280;28754;47.700;7.924;2023-04-10T07:57:38;91697.75;;;10.48
43292;BMP280;28754;47.700;7.924;2023-04-10T08:00:25;91710.56;;;10.58
43292;BMP280;28754;47.700;7.924;2023-04-10T08:03:13;91705.00;;;10.66
43292;BMP280;28754;47.700;7.924;2023-04-10T08:06:01;91704.75;;;10.72
43292;BMP280;28754;47.700;7.924;2023-04-10T08:08:47;91697.34;;;10.76
43292;BMP280;28754;47.700;7.924;2023-04-10T08:11:35;91698.41;;;10.85
43292;BMP280;28754;47.700;7.924;2023-04-10T08:14:22;91702.81;;;10.99
43292;BMP280;28754;47.700;7.924;2023-04-10T08:17:09;91695.94;;;11.09
43292;BMP280;28754;47.700;7.924;2023-04-10T08:19:59;91694.69;;;11.22
43292;BMP280;28754;47.700;7.924;2023-04-10T08:22:46;91687.28;;;11.35
43292;BMP280;28754;47.700;7.924;2023-04-10T08:25:33;91687.03;;;11.41
43292;BMP280;28754;47.700;7.924;2023-04-10T08:28:19;91695.03;;;11.45
43292;BMP280;28754;47.700;7.924;2023-04-10T08:31:06;91680.66;;;11.49
43292;BMP280;28754;47.700;7.924;2023-04-10T08:33:53;91696.84;;;11.59
43292;BMP280;28754;47.700;7.924;2023-04-10T08:36:40;91687.34;;;11.60
43292;BMP280;28754;47.700;7.924;2023-04-10T08:39:27;91694.53;;;11.67
43292;BMP280;28754;47.700;7.924;2023-04-10T08:42:13;91694.03;;;11.75
43292;BMP280;28754;47.700;7.924;2023-04-10T08:45:01;91696.84;;;11.89
43292;BMP280;28754;47.700;7.924;2023-04-10T08:47:50;91687.34;;;11.99
43292;BMP280;28754;47.700;7.924;2023-04-10T08:50:44;91701.22;;;12.13
43292;BMP280;28754;47.700;7.924;2023-04-10T08:53:42;91690.66;;;12.14
43292;BMP280;28754;47.700;7.924;2023-04-10T08:56:31;91691.44;;;12.25
43292;BMP280;28754;47.700;7.924;2023-04-10T08:59:19;91688.63;;;12.36
43292;BMP280;28754;47.700;7.924;2023-04-10T09:02:06;91697.03;;;12.46
43292;BMP280;28754;47.700;7.924;2023-04-10T09:04:54;91699.63;;;12.51
43292;BMP280;28754;47.700;7.924;2023-04-10T09:07:42;91700.63;;;12.60
43292;BMP280;28754;47.700;7.924;2023-04-10T09:10:29;91697.50;;;12.68
43292;BMP280;28754;47.700;7.924;2023-04-10T09:13:35;91706.00;;;12.83
43292;BMP280;28754;47.700;7.924;2023-04-10T09:16:28;91704.13;;;12.94
43292;BMP280;28754;47.700;7.924;2023-04-10T09:19:31;91696.91;;;13.05
43292;BMP280;28754;47.700;7.924;2023-04-10T09:22:28;91698.38;;;13.16
43292;BMP280;28754;47.700;7.924;2023-04-10T09:25:37;91683.41;;;13.33
43292;BMP280;28754;47.700;7.924;2023-04-10T09:28:27;91685.88;;;13.48
43292;BMP280;28754;47.700;7.924;2023-04-10T09:31:38;91686.91;;;13.47
43292;BMP280;28754;47.700;7.924;2023-04-10T09:34:54;91683.78;;;13.55
43292;BMP280;28754;47.700;7.924;2023-04-10T09:37:45;91676.31;;;13.53
43292;BMP280;28754;47.700;7.924;2023-04-10T09:40:32;91665.72;;;13.60
43292;BMP280;28754;47.700;7.924;2023-04-10T09:43:24;91673.88;;;13.72
43292;BMP280;28754;47.700;7.924;2023-04-10T09:46:11;91670.50;;;13.76
43292;BMP280;28754;47.700;7.924;2023-04-10T09:48:58;91677.38;;;13.85
43292;BMP280;28754;47.700;7.924;2023-04-10T09:51:46;91678.06;;;14.01
43292;BMP280;28754;47.700;7.924;2023-04-10T09:54:35;91665.44;;;14.04
43292;BMP280;28754;47.700;7.924;2023-04-10T09:57:29;91659.78;;;13.97
43292;BMP280;28754;47.700;7.924;2023-04-10T10:00:16;91669.75;;;14.08
43292;BMP280;28754;47.700;7.924;2023-04-10T10:03:10;91665.06;;;14.15
43292;BMP280;28754;47.700;7.924;2023-04-10T10:05:57;91657.94;;;14.36
43292;BMP280;28754;47.700;7.924;2023-04-10T10:08:44;91656.47;;;14.53
43292;BMP280;28754;47.700;7.924;2023-04-10T10:11:36;91654.16;;;14.51
43292;BMP280;28754;47.700;7.924;2023-04-10T10:14:26;91652.09;;;14.53
43292;BMP280;28754;47.700;7.924;2023-04-10T10:17:18;91656.72;;;14.56
43292;BMP280;28754;47.700;7.924;2023-04-10T10:20:10;91649.91;;;14.65
43292;BMP280;28754;47.700;7.924;2023-04-10T10:23:02;91645.63;;;14.79
43292;BMP280;28754;47.700;7.924;2023-04-10T10:25:54;91638.63;;;14.79
43292;BMP280;28754;47.700;7.924;2023-04-10T10:28:44;91627.94;;;14.91
43292;BMP280;28754;47.700;7.924;2023-04-10T10:31:39;91637.59;;;15.04
43292;BMP280;28754;47.700;7.924;2023-04-10T10:34:29;91625.72;;;15.03
43292;BMP280;28754;47.700;7.924;2023-04-10T10:37:19;91630.28;;;15.10
43292;BMP280;28754;47.700;7.924;2023-04-10T10:40:23;91633.72;;;15.24
43292;BMP280;28754;47.700;7.924;2023-04-10T10:43:45;91635.28;;;15.44
43292;BMP280;28754;47.700;7.924;2023-04-10T10:46:48;91617.19;;;15.44
43292;BMP280;28754;47.700;7.924;2023-04-10T10:50:04;91622.00;;;15.50
43292;BMP280;28754;47.700;7.924;2023-04-10T10:52:55;91623.97;;;15.58
43292;BMP280;28754;47.700;7.924;2023-04-10T10:55:45;91623.75;;;15.73
43292;BMP280;28754;47.700;7.924;2023-04-10T10:58:56;91624.00;;;15.89
43292;BMP280;28754;47.700;7.924;2023-04-10T11:02:22;91621.59;;;16.11
43292;BMP280;28754;47.700;7.924;2023-04-10T11:05:09;91631.97;;;16.24
43292;BMP280;28754;47.700;7.924;2023-04-10T11:16:50;91610.06;;;16.22
43292;BMP280;28754;47.700;7.924;2023-04-10T11:20:00;91622.88;;;16.27
43292;BMP280;28754;47.700;7.924;2023-04-10T11:23:09;91623.41;;;16.11
43292;BMP280;28754;47.700;7.924;2023-04-10T11:25:56;91615.94;;;16.09
43292;BMP280;28754;47.700;7.924;2023-04-10T11:28:46;91619.06;;;16.24
43292;BMP280;28754;47.700;7.924;2023-04-10T11:31:55;91620.78;;;16.42
43292;BMP280;28754;47.700;7.924;2023-04-10T11:34:43;91616.53;;;16.51
43292;BMP280;28754;47.700;7.924;2023-04-10T11:37:30;91631.63;;;16.44
43292;BMP280;28754;47.700;7.924;2023-04-10T11:40:17;91621.28;;;16.44
43292;BMP280;28754;47.700;7.924;2023-04-10T11:43:13;91616.81;;;16.49
43292;BMP280;28754;47.700;7.924;2023-04-10T11:46:03;91618.16;;;16.60
43292;BMP280;28754;47.700;7.924;2023-04-10T11:49:09;91613.19;;;16.77
43292;BMP280;28754;47.700;7.924;2023-04-10T11:51:56;91608.00;;;16.90
43292;BMP280;28754;47.700;7.924;2023-04-10T11:54:47;91608.75;;;16.91
43292;BMP280;28754;47.700;7.924;2023-04-10T11:57:34;91600.50;;;16.89
43292;BMP280;28754;47.700;7.924;2023-04-10T12:00:24;91609.91;;;16.98
43292;BMP280;28754;47.700;7.924;2023-04-10T12:03:11;91616.81;;;17.03
43292;BMP280;28754;47.700;7.924;2023-04-10T12:05:58;91611.72;;;16.98
43292;BMP280;28754;47.700;7.924;2023-04-10T12:08:46;91617.47;;;16.95
43292;BMP280;28754;47.700;7.924;2023-04-10T12:11:34;91617.00;;;16.93
43292;BMP280;28754;47.700;7.924;2023-04-10T12:14:22;91611.81;;;16.93
43292;BMP280;28754;47.700;7.924;2023-04-10T12:17:16;91610.00;;;16.80
43292;BMP280;28754;47.700;7.924;2023-04-10T12:20:03;91598.91;;;16.66
43292;BMP280;28754;47.700;7.924;2023-04-10T12:22:50;91589.06;;;16.68
43292;BMP280;28754;47.700;7.924;2023-04-10T12:25:38;91592.50;;;16.77
43292;BMP280;28754;47.700;7.924;2023-04-10T12:29:24;91580.63;;;16.89
43292;BMP280;28754;47.700;7.924;2023-04-10T12:32:13;91591.59;;;16.95
43292;BMP280;28754;47.700;7.924;2023-04-10T12:35:00;91585.84;;;16.98
43292;BMP280;28754;47.700;7.924;2023-04-10T12:37:51;91573.69;;;16.85
43292;BMP280;28754;47.700;7.924;2023-04-10T12:40:58;91584.91;;;16.94
43292;BMP280;28754;47.700;7.924;2023-04-10T12:43:44;91570.53;;;16.88
43292;BMP280;28754;47.700;7.924;2023-04-10T12:46:31;91565.00;;;16.81
43292;BMP280;28754;47.700;7.924;2023-04-10T12:49:18;91583.47;;;16.88
43292;BMP280;28754;47.700;7.924;2023-04-10T12:52:04;91582.53;;;16.84
43292;BMP280;28754;47.700;7.924;2023-04-10T12:54:51;91574.94;;;16.74
43292;BMP280;28754;47.700;7.924;2023-04-10T12:57:41;91574.47;;;16.72
43292;BMP280;28754;47.700;7.924;2023-04-10T13:00:27;91581.94;;;16.74
43292;BMP280;28754;47.700;7.924;2023-04-10T13:03:21;91578.13;;;16.71
43292;BMP280;28754;47.700;7.924;2023-04-10T13:06:15;91573.44;;;16.73
43292;BMP280;28754;47.700;7.924;2023-04-10T13:09:08;91569.28;;;16.72
43292;BMP280;28754;47.700;7.924;2023-04-10T13:11:55;91576.09;;;16.82
43292;BMP280;28754;47.700;7.924;2023-04-10T13:14:43;91572.00;;;16.94
43292;BMP280;28754;47.700;7.924;2023-04-10T13:17:29;91558.53;;;17.05
43292;BMP280;28754;47.700;7.924;2023-04-10T13:20:16;91552.88;;;17.17
43292;BMP280;28754;47.700;7.924;2023-04-10T13:23:03;91550.66;;;17.23
43292;BMP280;28754;47.700;7.924;2023-04-10T13:25:50;91553.16;;;17.28
43292;BMP280;28754;47.700;7.924;2023-04-10T13:28:37;91544.69;;;17.36
43292;BMP280;28754;47.700;7.924;2023-04-10T13:31:24;91541.44;;;17.31
43292;BMP280;28754;47.700;7.924;2023-04-10T13:34:11;91539.47;;;17.28
43292;BMP280;28754;47.700;7.924;2023-04-10T13:36:57;91550.84;;;17.27
43292;BMP280;28754;47.700;7.924;2023-04-10T13:39:44;91536.56;;;17.29
43292;BMP280;28754;47.700;7.924;2023-04-10T13:42:31;91542.81;;;17.28
43292;BMP280;28754;47.700;7.924;2023-04-10T13:45:18;91541.25;;;17.27
43292;BMP280;28754;47.700;7.924;2023-04-10T13:48:05;91535.13;;;17.23
43292;BMP280;28754;47.700;7.924;2023-04-10T13:50:52;91536.09;;;17.27
43292;BMP280;28754;47.700;7.924;2023-04-10T13:53:39;91537.44;;;17.25
43292;BMP280;28754;47.700;7.924;2023-04-10T13:56:26;91529.13;;;17.15
43292;BMP280;28754;47.700;7.924;2023-04-10T13:59:13;91528.84;;;17.03
43292;BMP280;28754;47.700;7.924;2023-04-10T14:02:00;91530.28;;;16.95
43292;BMP280;28754;47.700;7.924;2023-04-10T14:04:46;91529.66;;;16.90
43292;BMP280;28754;47.700;7.924;2023-04-10T14:07:33;91521.00;;;16.94
43292;BMP280;28754;47.700;7.924;2023-04-10T14:10:20;91523.84;;;17.06
43292;BMP280;28754;47.700;7.924;2023-04-10T14:13:06;91521.44;;;17.10
43292;BMP280;28754;47.700;7.924;2023-04-10T14:15:54;91517.50;;;17.12
43292;BMP280;28754;47.700;7.924;2023-04-10T14:18:41;91510.44;;;17.18
43292;BMP280;28754;47.700;7.924;2023-04-10T14:21:27;91511.78;;;17.15
43292;BMP280;28754;47.700;7.924;2023-04-10T14:24:14;91509.59;;;17.09
43292;BMP280;28754;47.700;7.924;2023-04-10T14:27:01;91519.06;;;17.00
43292;BMP280;28754;47.700;7.924;2023-04-10T14:29:48;91515.34;;;16.92
43292;BMP280;28754;47.700;7.924;2023-04-10T14:32:35;91505.41;;;16.86
43292;BMP280;28754;47.700;7.924;2023-04-10T14:35:22;91511.25;;;16.78
43292;BMP280;28754;47.700;7.924;2023-04-10T14:38:09;91518.66;;;16.71
43292;BMP280;28754;47.700;7.924;2023-04-10T14:40:59;91509.78;;;16.64
43292;BMP280;28754;47.700;7.924;2023-04-10T14:43:53;91510.16;;;16.57
43292;BMP280;28754;47.700;7.924;2023-04-10T14:46:48;91508.41;;;16.53
43292;BMP280;28754;47.700;7.924;2023-04-10T14:49:54;91508.41;;;16.53
43292;BMP280;28754;47.700;7.924;2023-04-10T14:52:41;91508.81;;;16.60
43292;BMP280;28754;47.700;7.924;2023-04-10T14:55:28;91515.69;;;16.64
43292;BMP280;28754;47.700;7.924;2023-04-10T14:58:16;91513.50;;;16.58
43292;BMP280;28754;47.700;7.924;2023-04-10T15:01:02;91505.66;;;16.49
43292;BMP280;28754;47.700;7.924;2023-04-10T15:03:49;91508.91;;;16.42
43292;BMP280;28754;47.700;7.924;2023-04-10T15:06:36;91501.75;;;16.39
43292;BMP280;28754;47.700;7.924;2023-04-10T15:09:23;91496.75;;;16.29
43292;BMP280;28754;47.700;7.924;2023-04-10T15:12:09;91489.78;;;16.16
43292;BMP280;28754;47.700;7.924;2023-04-10T15:14:56;91493.91;;;16.17
43292;BMP280;28754;47.700;7.924;2023-04-10T15:17:44;91478.91;;;16.14
43292;BMP280;28754;47.700;7.924;2023-04-10T15:20:30;91483.44;;;16.09
43292;BMP280;28754;47.700;7.924;2023-04-10T15:23:29;91480.00;;;16.00
43292;BMP280;28754;47.700;7.924;2023-04-10T15:26:25;91477.19;;;15.96
43292;BMP280;28754;47.700;7.924;2023-04-10T15:29:22;91461.81;;;15.91
43292;BMP280;28754;47.700;7.924;2023-04-10T15:32:16;91461.50;;;15.93
43292;BMP280;28754;47.700;7.924;2023-04-10T15:35:51;91456.44;;;15.88
43292;BMP280;28754;47.700;7.924;2023-04-10T15:38:55;91454.13;;;15.86
43292;BMP280;28754;47.700;7.924;2023-04-10T15:45:14;91456.16;;;15.89
43292;BMP280;28754;47.700;7.924;2023-04-10T15:48:01;91458.75;;;15.89
43292;BMP280;28754;47.700;7.924;2023-04-10T15:50:49;91465.44;;;15.90
43292;BMP280;28754;47.700;7.924;2023-04-10T15:53:36;91456.34;;;15.93
43292;BMP280;28754;47.700;7.924;2023-04-10T15:56:23;91459.97;;;15.92
43292;BMP280;28754;47.700;7.924;2023-04-10T15:59:09;91457.13;;;15.93
43292;BMP280;28754;47.700;7.924;2023-04-10T16:01:56;91456.66;;;15.91
43292;BMP280;28754;47.700;7.924;2023-04-10T16:04:45;91458.25;;;15.87
43292;BMP280;28754;47.700;7.924;2023-04-10T16:07:32;91457.88;;;15.80
43292;BMP280;28754;47.700;7.924;2023-04-10T16:10:24;91455.19;;;15.72
43292;BMP280;28754;47.700;7.924;2023-04-10T16:13:11;91451.91;;;15.67
43292;BMP280;28754;47.700;7.924;2023-04-10T16:15:58;91448.25;;;15.54
43292;BMP280;28754;47.700;7.924;2023-04-10T16:18:45;91444.25;;;15.48
43292;BMP280;28754;47.700;7.924;2023-04-10T16:21:31;91436.22;;;15.50
43292;BMP280;28754;47.700;7.924;2023-04-10T16:24:18;91437.00;;;15.50
43292;BMP280;28754;47.700;7.924;2023-04-10T16:27:05;91445.19;;;15.52
43292;BMP280;28754;47.700;7.924;2023-04-10T16:29:53;91443.19;;;15.49
43292;BMP280;28754;47.700;7.924;2023-04-10T16:32:40;91440.69;;;15.45
43292;BMP280;28754;47.700;7.924;2023-04-10T16:35:27;91438.75;;;15.37
43292;BMP280;28754;47.700;7.924;2023-04-10T16:38:13;91446.28;;;15.33
43292;BMP280;28754;47.700;7.924;2023-04-10T16:41:02;91440.19;;;15.29
43292;BMP280;28754;47.700;7.924;2023-04-10T16:43:49;91435.09;;;15.24
43292;BMP280;28754;47.700;7.924;2023-04-10T16:46:36;91442.44;;;15.17
43292;BMP280;28754;47.700;7.924;2023-04-10T16:49:22;91446.63;;;15.13
43292;BMP280;28754;47.700;7.924;2023-04-10T16:52:12;91448.50;;;15.08
43292;BMP280;28754;47.700;7.924;2023-04-10T16:54:59;91446.75;;;15.04
43292;BMP280;28754;47.700;7.924;2023-04-10T16:57:45;91434.41;;;15.01
43292;BMP280;28754;47.700;7.924;2023-04-10T17:00:32;91432.91;;;15.00